createdAt,value
2017-05-13T00:00:47.589Z,48.47
2017-05-13T00:01:47.931Z,48.59
2017-05-13T00:02:47.960Z,48.66
2017-05-13T00:03:47.980Z,48.76
2017-05-13T00:04:48.018Z,48.79
2017-05-13T00:05:47.729Z,48.57
2017-05-13T00:06:48.067Z,48.66
2017-05-13T00:07:48.107Z,48.79
2017-05-13T00:08:48.133Z,48.76
2017-05-13T00:09:48.148Z,48.57
2017-05-13T00:10:48.183Z,48.47
2017-05-13T00:11:48.243Z,48.37
2017-05-13T00:12:47.923Z,48.37
2017-05-13T00:13:48.255Z,48.47
2017-05-13T00:14:48.289Z,48.47
2017-05-13T00:15:48.317Z,48.37
2017-05-13T00:16:48.341Z,48.66
2017-05-13T00:17:48.375Z,48.37
2017-05-13T00:18:48.396Z,48.37
2017-05-13T00:19:48.428Z,48.66
2017-05-13T00:20:48.350Z,48.39
2017-05-13T00:21:48.482Z,48.66
2017-05-13T00:22:48.198Z,48.28
2017-05-13T00:23:48.533Z,48.47
2017-05-13T00:24:48.568Z,48.57
2017-05-13T00:25:48.793Z,48.76
2017-05-13T00:26:48.621Z,48.57
2017-05-13T00:27:48.338Z,48.76
2017-05-13T00:28:48.682Z,48.3
2017-05-13T00:29:48.704Z,48.59
2017-05-13T00:30:48.988Z,48.57
2017-05-13T00:31:48.762Z,48.66
2017-05-13T00:32:48.787Z,48.59
2017-05-13T00:33:48.815Z,48.76
2017-05-13T00:34:48.844Z,48.28
2017-05-13T00:35:49.074Z,48.47
2017-05-13T00:36:48.584Z,48.47
2017-05-13T00:37:48.917Z,48.3
2017-05-13T00:38:48.946Z,48.18
2017-05-13T00:39:48.985Z,48.37
2017-05-13T00:40:49.262Z,48.37
2017-05-13T00:41:49.043Z,48.47
2017-05-13T00:42:49.068Z,48.66
2017-05-13T00:43:49.087Z,48.08
2017-05-13T00:44:48.807Z,48.18
2017-05-13T00:45:49.348Z,48.37
2017-05-13T00:46:48.860Z,48.57
2017-05-13T00:47:49.201Z,47.7
2017-05-13T00:48:49.228Z,48.39
2017-05-13T00:49:48.952Z,47.7
2017-05-13T00:50:49.483Z,48.3
2017-05-13T00:51:49.313Z,48.08
2017-05-13T00:52:49.343Z,48.37
2017-05-13T00:53:49.364Z,48.28
2017-05-13T00:54:49.391Z,48.47
2017-05-13T00:55:49.673Z,48.76
2017-05-13T00:56:49.452Z,47.99
2017-05-13T00:57:49.478Z,47.8
2017-05-13T00:58:49.507Z,48.37
2017-05-13T00:59:49.552Z,48.28
2017-05-13T01:00:49.820Z,48.47
2017-05-13T01:01:49.588Z,48.37
2017-05-13T01:02:49.306Z,48.37
2017-05-13T01:03:49.330Z,48.57
2017-05-13T01:04:49.359Z,48.47
2017-05-13T01:05:49.899Z,48.18
2017-05-13T01:06:49.728Z,48.37
2017-05-13T01:07:49.444Z,48.57
2017-05-13T01:08:49.782Z,48.47
2017-05-13T01:09:49.808Z,48.37
2017-05-13T01:10:49.839Z,48.28
2017-05-13T01:11:49.553Z,47.7
2017-05-13T01:12:49.897Z,47.8
2017-05-13T01:13:49.609Z,47.99
2017-05-13T01:14:49.950Z,48.37
2017-05-13T01:15:49.663Z,48.47
2017-05-13T01:16:50.005Z,47.7
2017-05-13T01:17:50.033Z,47.8
2017-05-13T01:18:50.053Z,47.8
2017-05-13T01:19:49.773Z,48.18
2017-05-13T01:20:50.117Z,48.66
2017-05-13T01:21:49.827Z,47.7
2017-05-13T01:22:50.169Z,48.08
2017-05-13T01:23:50.198Z,48.08
2017-05-13T01:24:50.231Z,47.7
2017-05-13T01:25:50.251Z,47.7
2017-05-13T01:26:49.968Z,47.7
2017-05-13T01:27:49.996Z,47.89
2017-05-13T01:28:50.328Z,47.7
2017-05-13T01:29:50.361Z,47.89
2017-05-13T01:30:50.074Z,48.08
2017-05-13T01:31:50.415Z,48.08
2017-05-13T01:32:50.443Z,47.89
2017-05-13T01:33:50.161Z,48.37
2017-05-13T01:34:50.498Z,48.18
2017-05-13T01:35:50.529Z,47.8
2017-05-13T01:36:50.555Z,48.18
2017-05-13T01:37:50.273Z,47.99
2017-05-13T01:38:50.616Z,47.8
2017-05-13T01:39:50.638Z,47.7
2017-05-13T01:40:50.670Z,48.28
2017-05-13T01:41:50.730Z,47.6
2017-05-13T01:42:50.718Z,48.47
2017-05-13T01:43:50.744Z,48.57
2017-05-13T01:44:50.774Z,48.47
2017-05-13T01:45:50.802Z,48.18
2017-05-13T01:46:50.831Z,48.18
2017-05-13T01:47:50.864Z,47.8
2017-05-13T01:48:50.882Z,48.37
2017-05-13T01:49:50.918Z,48.66
2017-05-13T01:50:50.939Z,48.28
2017-05-13T01:51:50.973Z,47.7
2017-05-13T01:52:50.995Z,48.37
2017-05-13T01:53:51.021Z,48.28
2017-05-13T01:54:50.741Z,48.47
2017-05-13T01:55:51.084Z,48.57
2017-05-13T01:56:51.105Z,48.47
2017-05-13T01:57:51.138Z,48.57
2017-05-13T01:58:51.160Z,47.99
2017-05-13T01:59:50.877Z,47.8
2017-05-13T02:00:51.221Z,48.66
2017-05-13T02:01:50.982Z,48.47
2017-05-13T02:02:51.271Z,48.47
2017-05-13T02:03:51.297Z,48.37
2017-05-13T02:04:51.332Z,48.18
2017-05-13T02:05:51.350Z,48.47
2017-05-13T02:06:51.071Z,48.47
2017-05-13T02:07:51.410Z,48.37
2017-05-13T02:08:51.124Z,48.28
2017-05-13T02:09:51.466Z,48.28
2017-05-13T02:10:51.493Z,48.37
2017-05-13T02:11:51.207Z,48.47
2017-05-13T02:12:51.556Z,48.57
2017-05-13T02:13:51.260Z,48.18
2017-05-13T02:14:51.626Z,48.28
2017-05-13T02:15:51.629Z,48.37
2017-05-13T02:16:51.347Z,48.28
2017-05-13T02:17:51.374Z,48.66
2017-05-13T02:18:51.711Z,48.47
2017-05-13T02:19:51.740Z,48.28
2017-05-13T02:20:51.774Z,48.28
2017-05-13T02:21:51.481Z,48.37
2017-05-13T02:22:51.823Z,48.18
2017-05-13T02:23:51.855Z,48.47
2017-05-13T02:24:51.873Z,48.47
2017-05-13T02:25:51.905Z,48.37
2017-05-13T02:26:51.935Z,48.47
2017-05-13T02:27:51.964Z,47.8
2017-05-13T02:28:51.987Z,47.8
2017-05-13T02:29:52.015Z,48.47
2017-05-13T02:30:52.045Z,48.28
2017-05-13T02:31:52.074Z,48.66
2017-05-13T02:32:52.098Z,48.57
2017-05-13T02:33:52.126Z,48.28
2017-05-13T02:34:51.832Z,48.28
2017-05-13T02:35:52.181Z,48.47
2017-05-13T02:36:52.210Z,48.37
2017-05-13T02:37:52.234Z,48.37
2017-05-13T02:38:52.263Z,48.66
2017-05-13T02:39:51.979Z,48.28
2017-05-13T02:40:52.317Z,48.37
2017-05-13T02:41:52.346Z,48.47
2017-05-13T02:42:52.066Z,48.28
2017-05-13T02:43:52.399Z,48.47
2017-05-13T02:44:52.428Z,48.47
2017-05-13T02:45:52.140Z,48.57
2017-05-13T02:46:52.421Z,48.37
2017-05-13T02:47:52.510Z,47.7
2017-05-13T02:48:52.538Z,48.37
2017-05-13T02:49:52.566Z,48.28
2017-05-13T02:50:52.596Z,48.37
2017-05-13T02:51:52.868Z,48.66
2017-05-13T02:52:52.689Z,48.28
2017-05-13T02:53:52.678Z,48.37
2017-05-13T02:54:52.704Z,48.57
2017-05-13T02:55:52.420Z,48.47
2017-05-13T02:56:53.009Z,48.37
2017-05-13T02:57:52.785Z,48.28
2017-05-13T02:58:52.814Z,48.37
2017-05-13T02:59:52.844Z,47.7
2017-05-13T03:00:52.869Z,47.6
2017-05-13T03:01:53.149Z,47.7
2017-05-13T03:02:52.926Z,48.28
2017-05-13T03:03:52.951Z,47.7
2017-05-13T03:04:52.979Z,47.7
2017-05-13T03:05:53.054Z,48.37
2017-05-13T03:06:52.970Z,48.18
2017-05-13T03:07:53.062Z,47.7
2017-05-13T03:08:53.086Z,47.7
2017-05-13T03:09:53.114Z,47.99
2017-05-13T03:10:53.144Z,48.28
2017-05-13T03:11:53.060Z,48.28
2017-05-13T03:12:53.196Z,48.57
2017-05-13T03:13:53.226Z,48.18
2017-05-13T03:14:53.246Z,48.47
2017-05-13T03:15:53.323Z,47.89
2017-05-13T03:16:53.511Z,48.37
2017-05-13T03:17:53.021Z,48.28
2017-05-13T03:18:53.365Z,48.18
2017-05-13T03:19:53.391Z,48.18
2017-05-13T03:20:53.415Z,47.7
2017-05-13T03:21:53.698Z,48.28
2017-05-13T03:22:53.473Z,48.28
2017-05-13T03:23:53.502Z,48.37
2017-05-13T03:24:53.534Z,48.18
2017-05-13T03:25:53.553Z,48.37
2017-05-13T03:26:53.839Z,48.57
2017-05-13T03:27:53.612Z,48.47
2017-05-13T03:28:53.640Z,48.37
2017-05-13T03:29:53.662Z,48.28
2017-05-13T03:30:53.698Z,48.37
2017-05-13T03:31:53.975Z,48.66
2017-05-13T03:32:53.748Z,48.28
2017-05-13T03:33:53.777Z,48.37
2017-05-13T03:34:53.805Z,48.28
2017-05-13T03:35:53.830Z,48.57
2017-05-13T03:36:53.546Z,48.57
2017-05-13T03:37:53.888Z,48.57
2017-05-13T03:38:53.596Z,48.28
2017-05-13T03:39:53.937Z,48.18
2017-05-13T03:40:53.970Z,48.18
2017-05-13T03:41:53.995Z,48.66
2017-05-13T03:42:54.023Z,48.66
2017-05-13T03:43:54.054Z,48.47
2017-05-13T03:44:54.080Z,48.57
2017-05-13T03:45:53.795Z,48.18
2017-05-13T03:46:54.142Z,48.57
2017-05-13T03:47:54.160Z,48.47
2017-05-13T03:48:54.190Z,48.37
2017-05-13T03:49:54.222Z,48.47
2017-05-13T03:50:54.243Z,48.57
2017-05-13T03:51:54.271Z,48.57
2017-05-13T03:52:54.298Z,48.37
2017-05-13T03:53:54.324Z,47.89
2017-05-13T03:54:54.033Z,48.66
2017-05-13T03:55:54.383Z,48.37
2017-05-13T03:56:54.091Z,48.28
2017-05-13T03:57:54.123Z,48.57
2017-05-13T03:58:54.152Z,48.86
2017-05-13T03:59:54.488Z,48.76
2017-05-13T04:00:54.206Z,48.66
2017-05-13T04:01:54.546Z,48.37
2017-05-13T04:02:54.579Z,48.37
2017-05-13T04:03:54.292Z,48.37
2017-05-13T04:04:54.624Z,48.57
2017-05-13T04:05:54.666Z,48.37
2017-05-13T04:06:54.681Z,48.18
2017-05-13T04:07:54.711Z,48.66
2017-05-13T04:08:54.432Z,48.66
2017-05-13T04:09:54.760Z,48.57
2017-05-13T04:10:54.793Z,48.76
2017-05-13T04:11:54.822Z,48.28
2017-05-13T04:12:54.847Z,48.37
2017-05-13T04:13:54.565Z,48.47
2017-05-13T04:14:54.904Z,48.57
2017-05-13T04:15:54.617Z,48.37
2017-05-13T04:16:54.957Z,48.57
2017-05-13T04:17:54.727Z,48.76
2017-05-13T04:18:55.012Z,48.57
2017-05-13T04:19:55.036Z,48.57
2017-05-13T04:20:55.071Z,48.57
2017-05-13T04:21:54.782Z,48.47
2017-05-13T04:22:54.808Z,48.76
2017-05-13T04:23:55.153Z,48.76
2017-05-13T04:24:55.175Z,48.66
2017-05-13T04:25:55.209Z,48.57
2017-05-13T04:26:54.922Z,48.57
2017-05-13T04:27:55.258Z,48.57
2017-05-13T04:28:55.287Z,48.76
2017-05-13T04:29:55.319Z,48.57
2017-05-13T04:30:55.345Z,48.57
2017-05-13T04:31:55.380Z,48.66
2017-05-13T04:32:55.085Z,48.57
2017-05-13T04:33:55.426Z,48.57
2017-05-13T04:34:55.448Z,48.66
2017-05-13T04:35:55.480Z,48.57
2017-05-13T04:36:55.509Z,48.66
2017-05-13T04:37:55.786Z,48.76
2017-05-13T04:38:55.561Z,48.57
2017-05-13T04:39:55.275Z,48.47
2017-05-13T04:40:55.616Z,48.57
2017-05-13T04:41:55.645Z,48.66
2017-05-13T04:42:55.611Z,48.76
2017-05-13T04:43:55.390Z,48.66
2017-05-13T04:44:55.726Z,48.66
2017-05-13T04:45:55.755Z,48.57
2017-05-13T04:46:55.781Z,48.66
2017-05-13T04:47:56.058Z,48.66
2017-05-13T04:48:55.837Z,48.66
2017-05-13T04:49:55.863Z,48.57
2017-05-13T04:50:55.893Z,48.76
2017-05-13T04:51:55.929Z,48.57
2017-05-13T04:52:56.145Z,48.66
2017-05-13T04:53:55.979Z,48.57
2017-05-13T04:54:56.003Z,48.66
2017-05-13T04:55:56.028Z,48.57
2017-05-13T04:56:56.055Z,48.57
2017-05-13T04:57:56.331Z,48.66
2017-05-13T04:58:56.109Z,48.66
2017-05-13T04:59:55.825Z,48.76
2017-05-13T05:00:56.172Z,48.66
2017-05-13T05:01:56.195Z,48.66
2017-05-13T05:02:56.469Z,48.66
2017-05-13T05:03:56.246Z,48.66
2017-05-13T05:04:56.277Z,48.57
2017-05-13T05:05:56.303Z,48.66
2017-05-13T05:06:56.330Z,48.66
2017-05-13T05:07:56.609Z,48.86
2017-05-13T05:08:56.390Z,48.57
2017-05-13T05:09:56.414Z,48.86
2017-05-13T05:10:56.442Z,48.66
2017-05-13T05:11:56.468Z,48.37
2017-05-13T05:12:56.748Z,48.66
2017-05-13T05:13:56.525Z,48.86
2017-05-13T05:14:56.556Z,48.57
2017-05-13T05:15:56.582Z,48.57
2017-05-13T05:16:56.612Z,48.47
2017-05-13T05:17:56.835Z,48.66
2017-05-13T05:18:56.699Z,48.66
2017-05-13T05:19:56.690Z,48.66
2017-05-13T05:20:56.719Z,48.66
2017-05-13T05:21:56.744Z,48.47
2017-05-13T05:22:57.025Z,48.57
2017-05-13T05:23:56.801Z,48.66
2017-05-13T05:24:56.825Z,48.66
2017-05-13T05:25:56.858Z,48.76
2017-05-13T05:26:56.885Z,48.57
2017-05-13T05:27:56.592Z,48.57
2017-05-13T05:28:56.935Z,48.57
2017-05-13T05:29:56.654Z,48.76
2017-05-13T05:30:56.672Z,48.57
2017-05-13T05:31:56.707Z,48.57
2017-05-13T05:32:57.051Z,48.57
2017-05-13T05:33:57.076Z,48.57
2017-05-13T05:34:57.101Z,48.76
2017-05-13T05:35:57.131Z,48.37
2017-05-13T05:36:57.158Z,48.66
2017-05-13T05:37:57.183Z,48.57
2017-05-13T05:38:57.212Z,48.57
2017-05-13T05:39:57.242Z,48.57
2017-05-13T05:40:56.954Z,48.47
2017-05-13T05:41:57.294Z,48.57
2017-05-13T05:42:57.322Z,48.47
2017-05-13T05:43:57.036Z,48.57
2017-05-13T05:44:57.065Z,48.57
2017-05-13T05:45:57.394Z,48.57
2017-05-13T05:46:57.430Z,48.66
2017-05-13T05:47:57.463Z,48.57
2017-05-13T05:48:57.181Z,48.57
2017-05-13T05:49:57.513Z,48.66
2017-05-13T05:50:57.546Z,48.57
2017-05-13T05:51:57.571Z,48.57
2017-05-13T05:52:57.287Z,48.57
2017-05-13T05:53:57.317Z,48.37
2017-05-13T05:54:57.340Z,48.76
2017-05-13T05:55:57.363Z,48.76
2017-05-13T05:56:57.706Z,48.76
2017-05-13T05:57:57.423Z,48.57
2017-05-13T05:58:57.797Z,48.66
2017-05-13T05:59:57.477Z,48.66
2017-05-13T06:00:57.808Z,48.57
2017-05-13T06:01:57.837Z,48.57
2017-05-13T06:02:57.558Z,48.57
2017-05-13T06:03:57.900Z,48.66
2017-05-13T06:04:57.924Z,48.47
2017-05-13T06:05:57.949Z,48.47
2017-05-13T06:06:57.982Z,48.57
2017-05-13T06:07:58.007Z,48.57
2017-05-13T06:08:58.061Z,48.57
2017-05-13T06:09:57.776Z,48.76
2017-05-13T06:10:58.092Z,48.66
2017-05-13T06:11:58.118Z,48.37
2017-05-13T06:12:58.147Z,48.57
2017-05-13T06:13:58.172Z,48.76
2017-05-13T06:14:57.887Z,48.47
2017-05-13T06:15:58.228Z,48.49
2017-05-13T06:16:58.257Z,48.66
2017-05-13T06:17:58.285Z,48.47
2017-05-13T06:18:58.311Z,48.66
2017-05-13T06:19:58.339Z,48.57
2017-05-13T06:20:58.362Z,48.47
2017-05-13T06:21:58.393Z,48.69
2017-05-13T06:22:58.110Z,48.37
2017-05-13T06:23:58.451Z,48.39
2017-05-13T06:24:58.471Z,48.76
2017-05-13T06:25:58.541Z,48.47
2017-05-13T06:26:58.537Z,48.3
2017-05-13T06:27:58.562Z,48.39
2017-05-13T06:28:58.589Z,48.59
2017-05-13T06:29:58.304Z,48.37
2017-05-13T06:30:58.637Z,48.37
2017-05-13T06:31:58.355Z,48.49
2017-05-13T06:32:58.697Z,48.69
2017-05-13T06:33:58.413Z,48.39
2017-05-13T06:34:58.750Z,48.39
2017-05-13T06:35:58.775Z,48.49
2017-05-13T06:36:58.808Z,48.59
2017-05-13T06:37:58.837Z,48.59
2017-05-13T06:38:59.111Z,48.59
2017-05-13T06:39:58.890Z,48.59
2017-05-13T06:40:58.919Z,48.39
2017-05-13T06:41:58.992Z,48.69
2017-05-13T06:42:58.661Z,48.69
2017-05-13T06:43:59.202Z,48.59
2017-05-13T06:44:59.032Z,48.21
2017-05-13T06:45:59.052Z,48.69
2017-05-13T06:46:59.084Z,48.69
2017-05-13T06:47:59.113Z,48.39
2017-05-13T06:48:59.341Z,48.49
2017-05-13T06:49:59.166Z,48.69
2017-05-13T06:50:58.883Z,48.88
2017-05-13T06:51:59.223Z,48.69
2017-05-13T06:52:59.252Z,48.39
2017-05-13T06:53:59.166Z,48.39
2017-05-13T06:54:59.306Z,48.59
2017-05-13T06:55:59.334Z,48.49
2017-05-13T06:56:59.048Z,48.69
2017-05-13T06:57:59.388Z,48.49
2017-05-13T06:58:59.617Z,48.59
2017-05-13T06:59:59.438Z,48.59
2017-05-13T07:00:59.474Z,48.49
2017-05-13T07:01:59.499Z,48.39
2017-05-13T07:02:59.532Z,48.59
2017-05-13T07:03:59.751Z,48.39
2017-05-13T07:04:59.582Z,48.88
2017-05-13T07:05:59.611Z,48.88
2017-05-13T07:06:59.331Z,48.79
2017-05-13T07:07:59.356Z,48.59
2017-05-13T07:08:59.896Z,48.79
2017-05-13T07:09:59.766Z,48.79
2017-05-13T07:10:59.738Z,48.59
2017-05-13T07:11:59.464Z,48.59
2017-05-13T07:12:59.799Z,48.59
2017-05-13T07:13:59.767Z,48.59
2017-05-13T07:14:59.541Z,48.59
2017-05-13T07:15:59.882Z,48.3
2017-05-13T07:16:59.917Z,48.3
2017-05-13T07:17:59.946Z,48.39
2017-05-13T07:19:00.215Z,48.59
2017-05-13T07:19:59.992Z,48.79
2017-05-13T07:21:00.026Z,48.39
2017-05-13T07:22:00.050Z,48.3
2017-05-13T07:22:59.768Z,48.59
2017-05-13T07:24:00.308Z,48.59
2017-05-13T07:25:00.137Z,48.59
2017-05-13T07:26:00.162Z,48.59
2017-05-13T07:27:00.191Z,48.59
2017-05-13T07:28:00.219Z,48.39
2017-05-13T07:28:59.935Z,48.69
2017-05-13T07:30:00.277Z,48.69
2017-05-13T07:31:00.301Z,48.59
2017-05-13T07:32:00.330Z,48.39
2017-05-13T07:33:00.359Z,48.69
2017-05-13T07:34:00.384Z,48.59
2017-05-13T07:35:00.412Z,48.39
2017-05-13T07:36:00.441Z,48.69
2017-05-13T07:37:00.478Z,48.3
2017-05-13T07:38:00.495Z,48.69
2017-05-13T07:39:00.523Z,48.49
2017-05-13T07:40:00.572Z,48.39
2017-05-13T07:41:00.572Z,48.39
2017-05-13T07:42:00.606Z,48.59
2017-05-13T07:43:00.323Z,48.49
2017-05-13T07:44:00.663Z,48.59
2017-05-13T07:45:00.377Z,48.49
2017-05-13T07:46:00.401Z,48.32
2017-05-13T07:47:00.749Z,48.52
2017-05-13T07:48:00.774Z,48.13
2017-05-13T07:49:00.800Z,47.94
2017-05-13T07:50:00.835Z,47.94
2017-05-13T07:51:00.854Z,47.84
2017-05-13T07:52:00.893Z,48.42
2017-05-13T07:53:00.914Z,48.23
2017-05-13T07:54:00.940Z,48.13
2017-05-13T07:55:00.968Z,48.03
2017-05-13T07:56:00.681Z,48.13
2017-05-13T07:57:01.023Z,48.13
2017-05-13T07:58:01.055Z,48.13
2017-05-13T07:59:00.768Z,48.13
2017-05-13T08:00:01.096Z,48.03
2017-05-13T08:01:00.855Z,48.13
2017-05-13T08:02:01.169Z,48.03
2017-05-13T08:03:01.261Z,48.03
2017-05-13T08:04:01.220Z,47.84
2017-05-13T08:05:00.931Z,47.74
2017-05-13T08:06:01.278Z,47.74
2017-05-13T08:07:01.301Z,47.65
2017-05-13T08:08:01.335Z,47.74
2017-05-13T08:09:01.363Z,47.74
2017-05-13T08:10:01.076Z,47.55
2017-05-13T08:11:01.105Z,47.55
2017-05-13T08:12:01.133Z,48.13
2017-05-13T08:13:01.486Z,48.23
2017-05-13T08:14:01.512Z,48.13
2017-05-13T08:15:01.532Z,48.03
2017-05-13T08:16:01.561Z,47.86
2017-05-13T08:17:01.585Z,47.65
2017-05-13T08:18:01.610Z,47.45
2017-05-13T08:19:01.648Z,47.36
2017-05-13T08:20:01.920Z,47.74
2017-05-13T08:21:01.384Z,47.67
2017-05-13T08:22:01.413Z,47.67
2017-05-13T08:23:01.442Z,47.74
2017-05-13T08:24:01.787Z,47.48
2017-05-13T08:25:02.064Z,47.77
2017-05-13T08:26:01.529Z,47.48
2017-05-13T08:27:01.868Z,47.38
2017-05-13T08:28:01.896Z,47.67
2017-05-13T08:29:01.922Z,47.67
2017-05-13T08:30:02.151Z,47.48
2017-05-13T08:31:01.979Z,47.86
2017-05-13T08:32:02.009Z,47.96
2017-05-13T08:33:02.041Z,47.96
2017-05-13T08:34:02.066Z,47.28
2017-05-13T08:35:02.348Z,47.58
2017-05-13T08:36:02.119Z,47.38
2017-05-13T08:37:02.153Z,47.58
2017-05-13T08:38:02.177Z,47.48
2017-05-13T08:39:02.206Z,47.67
2017-05-13T08:40:02.123Z,47.67
2017-05-13T08:41:02.262Z,48.35
2017-05-13T08:42:02.293Z,47.86
2017-05-13T08:43:02.322Z,47.58
2017-05-13T08:44:02.350Z,48.06
2017-05-13T08:45:02.575Z,48.25
2017-05-13T08:46:02.403Z,48.06
2017-05-13T08:47:02.428Z,47.58
2017-05-13T08:48:02.461Z,47.58
2017-05-13T08:49:02.486Z,47.67
2017-05-13T08:50:02.718Z,47.86
2017-05-13T08:51:02.548Z,47.86
2017-05-13T08:52:02.577Z,47.86
2017-05-13T08:53:02.645Z,47.67
2017-05-13T08:54:02.632Z,47.58
2017-05-13T08:55:02.914Z,47.41
2017-05-13T08:56:02.685Z,47.77
2017-05-13T08:57:02.405Z,47.86
2017-05-13T08:58:02.742Z,47.67
2017-05-13T08:59:02.458Z,47.38
2017-05-13T09:00:02.687Z,47.58
2017-05-13T09:01:02.518Z,47.38
2017-05-13T09:02:02.548Z,47.69
2017-05-13T09:03:02.889Z,47.48
2017-05-13T09:04:02.909Z,47.48
2017-05-13T09:05:02.834Z,47.48
2017-05-13T09:06:02.978Z,47.41
2017-05-13T09:07:03.003Z,47.79
2017-05-13T09:08:03.083Z,47.41
2017-05-13T09:09:03.061Z,47.48
2017-05-13T09:10:02.970Z,47.79
2017-05-13T09:11:03.116Z,47.41
2017-05-13T09:12:03.144Z,47.69
2017-05-13T09:13:03.173Z,47.6
2017-05-13T09:14:03.201Z,47.41
2017-05-13T09:15:03.114Z,47.5
2017-05-13T09:16:02.946Z,47.41
2017-05-13T09:17:03.288Z,47.69
2017-05-13T09:18:03.317Z,47.5
2017-05-13T09:19:03.346Z,47.69
2017-05-13T09:20:03.575Z,47.5
2017-05-13T09:21:03.087Z,47.79
2017-05-13T09:22:03.113Z,47.69
2017-05-13T09:23:03.142Z,47.5
2017-05-13T09:24:03.485Z,48.08
2017-05-13T09:25:03.722Z,47.5
2017-05-13T09:26:03.544Z,48.08
2017-05-13T09:27:03.574Z,48.47
2017-05-13T09:28:03.592Z,47.99
2017-05-13T09:29:03.634Z,47.6
2017-05-13T09:30:03.861Z,47.6
2017-05-13T09:31:03.374Z,47.31
2017-05-13T09:32:03.716Z,47.33
2017-05-13T09:33:03.744Z,47.41
2017-05-13T09:34:03.773Z,47.69
2017-05-13T09:35:04.005Z,47.89
2017-05-13T09:36:03.829Z,47.89
2017-05-13T09:37:03.861Z,47.79
2017-05-13T09:38:03.888Z,47.69
2017-05-13T09:39:03.633Z,47.6
2017-05-13T09:40:04.150Z,47.79
2017-05-13T09:41:03.975Z,48.37
2017-05-13T09:42:03.685Z,47.79
2017-05-13T09:43:04.037Z,47.6
2017-05-13T09:44:04.062Z,47.89
2017-05-13T09:45:04.294Z,47.31
2017-05-13T09:46:04.123Z,47.81
2017-05-13T09:47:04.143Z,47.72
2017-05-13T09:48:04.176Z,47.69
2017-05-13T09:49:04.209Z,47.41
2017-05-13T09:50:04.434Z,47.52
2017-05-13T09:51:04.262Z,47.69
2017-05-13T09:52:04.292Z,47.72
2017-05-13T09:53:04.320Z,47.41
2017-05-13T09:54:04.350Z,46.84
2017-05-13T09:55:04.266Z,47.14
2017-05-13T09:56:04.098Z,47.43
2017-05-13T09:57:04.436Z,47.89
2017-05-13T09:58:04.477Z,47.62
2017-05-13T09:59:04.180Z,47.81
2017-05-13T10:00:04.410Z,48.01
2017-05-13T10:01:04.548Z,47.72
2017-05-13T10:02:04.268Z,47.72
2017-05-13T10:03:04.608Z,47.72
2017-05-13T10:04:04.637Z,47.43
2017-05-13T10:05:04.862Z,47.72
2017-05-13T10:06:04.378Z,47.72
2017-05-13T10:07:04.727Z,47.91
2017-05-13T10:08:04.749Z,47.62
2017-05-13T10:09:04.781Z,47.69
2017-05-13T10:10:05.062Z,47.69
2017-05-13T10:11:04.838Z,47.6
2017-05-13T10:12:04.867Z,47.69
2017-05-13T10:13:04.895Z,47.5
2017-05-13T10:14:04.923Z,48.27
2017-05-13T10:15:05.154Z,47.5
2017-05-13T10:16:04.983Z,47.62
2017-05-13T10:17:05.012Z,47.69
2017-05-13T10:18:05.044Z,47.6
2017-05-13T10:19:05.068Z,47.6
2017-05-13T10:20:05.034Z,47.89
2017-05-13T10:21:05.123Z,48.08
2017-05-13T10:22:05.154Z,48.18
2017-05-13T10:23:04.871Z,48.08
2017-05-13T10:24:04.908Z,47.6
2017-05-13T10:25:05.437Z,47.5
2017-05-13T10:26:05.270Z,47.31
2017-05-13T10:27:05.299Z,47.5
2017-05-13T10:28:05.015Z,46.73
2017-05-13T10:29:05.356Z,46.53
2017-05-13T10:30:05.273Z,46.63
2017-05-13T10:31:05.414Z,46.73
2017-05-13T10:32:05.443Z,47.14
2017-05-13T10:33:05.471Z,47.5
2017-05-13T10:34:05.188Z,47.43
2017-05-13T10:35:05.414Z,47.69
2017-05-13T10:36:05.246Z,46.94
2017-05-13T10:37:05.275Z,47.04
2017-05-13T10:38:05.619Z,47.91
2017-05-13T10:39:05.641Z,47.43
2017-05-13T10:40:05.558Z,47.69
2017-05-13T10:41:05.387Z,47.52
2017-05-13T10:42:05.731Z,47.31
2017-05-13T10:43:05.760Z,47.14
2017-05-13T10:44:05.784Z,47.33
2017-05-13T10:45:06.017Z,46.56
2017-05-13T10:46:05.536Z,47.24
2017-05-13T10:47:05.884Z,46.75
2017-05-13T10:48:05.900Z,46.75
2017-05-13T10:49:05.932Z,46.56
2017-05-13T10:50:06.163Z,46.84
2017-05-13T10:51:05.675Z,46.66
2017-05-13T10:52:06.019Z,47.33
2017-05-13T10:53:05.727Z,46.56
2017-05-13T10:54:06.067Z,46.75
2017-05-13T10:55:06.357Z,47.43
2017-05-13T10:56:06.133Z,47.52
2017-05-13T10:57:06.165Z,47.14
2017-05-13T10:58:06.196Z,47.43
2017-05-13T10:59:06.225Z,47.33
2017-05-13T11:00:06.454Z,47.33
2017-05-13T11:01:06.282Z,47.33
2017-05-13T11:02:06.311Z,47.72
2017-05-13T11:03:06.051Z,47.33
2017-05-13T11:04:06.367Z,47.62
2017-05-13T11:05:06.286Z,47.62
2017-05-13T11:06:06.424Z,46.66
2017-05-13T11:07:06.455Z,46.75
2017-05-13T11:08:06.480Z,47.14
2017-05-13T11:09:06.516Z,47.14
2017-05-13T11:10:06.784Z,47.52
2017-05-13T11:11:06.571Z,46.66
2017-05-13T11:12:06.287Z,46.75
2017-05-13T11:13:06.316Z,46.36
2017-05-13T11:14:06.659Z,46.84
2017-05-13T11:15:06.937Z,46.66
2017-05-13T11:16:06.717Z,46.84
2017-05-13T11:17:06.747Z,47.43
2017-05-13T11:18:06.770Z,46.84
2017-05-13T11:19:06.804Z,47.24
2017-05-13T11:20:06.772Z,46.94
2017-05-13T11:21:06.861Z,47.14
2017-05-13T11:22:06.894Z,47.52
2017-05-13T11:23:06.915Z,47.14
2017-05-13T11:24:06.637Z,47.14
2017-05-13T11:25:07.173Z,47.14
2017-05-13T11:26:06.693Z,46.56
2017-05-13T11:27:07.090Z,47.14
2017-05-13T11:28:07.063Z,46.46
2017-05-13T11:29:07.099Z,46.94
2017-05-13T11:30:07.319Z,46.75
2017-05-13T11:31:07.153Z,46.66
2017-05-13T11:32:07.181Z,46.94
2017-05-13T11:33:07.206Z,46.48
2017-05-13T11:34:07.238Z,46.58
2017-05-13T11:35:07.152Z,46.97
2017-05-13T11:36:07.297Z,46.29
2017-05-13T11:37:07.327Z,46.77
2017-05-13T11:38:07.356Z,46.48
2017-05-13T11:39:07.377Z,46.29
2017-05-13T11:40:07.297Z,45.83
2017-05-13T11:41:07.445Z,46.02
2017-05-13T11:42:07.470Z,45.54
2017-05-13T11:43:07.191Z,45.44
2017-05-13T11:44:07.530Z,45.05
2017-05-13T11:45:07.492Z,44.57
2017-05-13T11:46:07.273Z,45.15
2017-05-13T11:47:07.617Z,44.96
2017-05-13T11:48:07.643Z,44.68
2017-05-13T11:49:07.684Z,45.17
2017-05-13T11:50:07.906Z,44.49
2017-05-13T11:51:07.738Z,44.1
2017-05-13T11:52:07.766Z,44.01
2017-05-13T11:53:07.487Z,43.84
2017-05-13T11:54:07.827Z,44.13
2017-05-13T11:55:08.107Z,42.67
2017-05-13T11:56:07.573Z,42.19
2017-05-13T11:57:07.605Z,42.99
2017-05-13T11:58:07.943Z,42.6
2017-05-13T11:59:07.668Z,42.48
2017-05-13T12:00:08.264Z,42.5
2017-05-13T12:01:08.036Z,42.6
2017-05-13T12:02:08.070Z,42.4
2017-05-13T12:03:08.098Z,42.48
2017-05-13T12:04:07.814Z,42.77
2017-05-13T12:05:08.408Z,42.4
2017-05-13T12:06:08.186Z,42.3
2017-05-13T12:07:08.217Z,42.3
2017-05-13T12:08:08.251Z,42.4
2017-05-13T12:09:08.274Z,42.5
2017-05-13T12:10:08.511Z,42.43
2017-05-13T12:11:08.340Z,41.45
2017-05-13T12:12:08.062Z,41.77
2017-05-13T12:13:08.404Z,41.57
2017-05-13T12:14:08.432Z,40.89
2017-05-13T12:15:08.716Z,40.52
2017-05-13T12:16:08.493Z,40.15
2017-05-13T12:17:08.529Z,39.86
2017-05-13T12:18:08.564Z,39.1
2017-05-13T12:19:08.279Z,39
2017-05-13T12:20:08.568Z,38.52
2017-05-13T12:21:08.655Z,37.76
2017-05-13T12:22:08.683Z,36.88
2017-05-13T12:23:08.715Z,36.71
2017-05-13T12:24:08.752Z,36.71
2017-05-13T12:25:09.036Z,36.72
2017-05-13T12:26:08.821Z,35.36
2017-05-13T12:27:08.845Z,35.38
2017-05-13T12:28:08.877Z,35.38
2017-05-13T12:29:08.902Z,34.59
2017-05-13T12:30:09.192Z,34.31
2017-05-13T12:31:08.973Z,33.82
2017-05-13T12:32:09.010Z,34.11
2017-05-13T12:33:09.043Z,34.31
2017-05-13T12:34:09.071Z,34.69
2017-05-13T12:35:09.365Z,34.21
2017-05-13T12:36:09.136Z,34.88
2017-05-13T12:37:09.170Z,34.78
2017-05-13T12:38:09.229Z,34.48
2017-05-13T12:39:09.239Z,34.29
2017-05-13T12:40:09.209Z,34.39
2017-05-13T12:41:09.300Z,34.95
2017-05-13T12:42:09.329Z,34.47
2017-05-13T12:43:09.041Z,35.34
2017-05-13T12:44:09.086Z,35.15
2017-05-13T12:45:09.625Z,35.63
2017-05-13T12:46:09.461Z,35.63
2017-05-13T12:47:09.193Z,35.61
2017-05-13T12:48:09.523Z,35.71
2017-05-13T12:49:09.243Z,35.81
2017-05-13T12:50:09.787Z,36.1
2017-05-13T12:51:09.620Z,36.08
2017-05-13T12:52:09.333Z,36.08
2017-05-13T12:53:09.675Z,35.8
2017-05-13T12:54:09.704Z,36.46
2017-05-13T12:55:09.944Z,36.65
2017-05-13T12:56:09.469Z,36.75